createdAt,value
2019-03-06T00:03:13.824Z,6.70
2019-03-06T00:08:18.150Z,6.70
2019-03-06T00:13:22.359Z,6.70
2019-03-06T00:18:26.600Z,6.40
2019-03-06T00:23:31.107Z,6.60
2019-03-06T00:28:35.656Z,6.80
2019-03-06T00:33:39.831Z,6.80
2019-03-06T00:38:44.259Z,6.60
2019-03-06T00:43:48.552Z,6.60
2019-03-06T00:48:52.988Z,6.40
2019-03-06T00:53:57.175Z,6.20
2019-03-06T00:59:01.613Z,6.10
2019-03-06T01:04:06.301Z,5.90
2019-03-06T07:43:14.231Z,7.50
2019-03-06T07:48:25.739Z,7.40
2019-03-06T07:53:54.265Z,7.30
2019-03-06T07:58:59.405Z,7.50
2019-03-06T08:04:07.081Z,7.70
2019-03-06T08:09:16.879Z,7.90
2019-03-06T08:14:40.219Z,7.90
2019-03-06T08:20:12.047Z,7.50
2019-03-06T08:25:23.335Z,7.50
2019-03-06T08:30:29.191Z,7.50
2019-03-06T08:35:33.453Z,7.60
2019-03-06T08:40:37.699Z,8.10
2019-03-06T08:50:11.706Z,8.20
2019-03-06T08:55:28.438Z,8.20
2019-03-06T09:00:54.503Z,8.20
2019-03-06T09:06:16.459Z,8.40
2019-03-06T09:11:26.844Z,8.50
2019-03-06T09:16:56.725Z,8.60
2019-03-06T09:22:26.015Z,8.70
2019-03-06T09:27:35.170Z,9.10
2019-03-06T09:33:01.424Z,9.10
2019-03-06T09:38:23.639Z,9.30
2019-03-06T09:49:11.821Z,10.30
2019-03-06T09:54:27.349Z,10.80
2019-03-06T09:59:36.604Z,11.50
2019-03-06T10:04:46.348Z,12.00
2019-03-06T10:10:03.825Z,11.60
2019-03-06T10:15:22.172Z,10.90
2019-03-06T10:20:26.564Z,11.10
2019-03-06T10:25:31.469Z,10.80
2019-03-06T10:30:36.648Z,10.60
2019-03-06T10:35:40.920Z,10.80
2019-03-06T10:40:45.258Z,10.60
2019-03-06T10:45:49.503Z,11.10
2019-03-06T10:50:53.800Z,11.10
2019-03-06T10:55:58.205Z,11.10
2019-03-06T11:01:02.548Z,10.80
2019-03-06T11:06:07.108Z,11.10
2019-03-06T11:11:11.649Z,11.00
2019-03-06T11:16:17.889Z,10.90
2019-03-06T11:21:21.997Z,11.10
2019-03-06T11:26:26.366Z,11.00
2019-03-06T11:31:30.704Z,10.90
2019-03-06T11:36:35.250Z,10.90
2019-03-06T11:41:39.527Z,11.20
2019-03-06T11:46:43.936Z,11.20
2019-03-06T11:51:48.261Z,11.30
2019-03-06T11:56:52.523Z,11.30
2019-03-06T12:01:56.783Z,11.40
2019-03-06T12:07:00.971Z,11.50
2019-03-06T12:12:05.607Z,11.50
2019-03-06T12:17:09.778Z,11.80
2019-03-06T12:22:14.247Z,11.80
2019-03-06T12:27:18.559Z,12.10
2019-03-06T12:32:22.764Z,12.30
2019-03-06T12:37:27.011Z,12.40
2019-03-06T12:42:31.419Z,12.70
2019-03-06T12:47:35.600Z,12.50
2019-03-06T12:52:39.793Z,12.50
2019-03-06T12:57:44.041Z,12.60
2019-03-06T13:02:48.553Z,12.70
2019-03-06T13:07:53.221Z,12.60
2019-03-06T13:12:57.460Z,12.80
2019-03-06T13:18:01.811Z,13.00
2019-03-06T13:23:07.946Z,13.20
2019-03-06T13:28:12.274Z,13.70
2019-03-06T13:33:25.259Z,13.40
2019-03-06T13:38:29.515Z,13.80
2019-03-06T13:43:33.790Z,13.70
2019-03-06T13:48:40.282Z,13.50
2019-03-06T13:53:44.548Z,13.50
2019-03-06T13:58:48.872Z,13.50
2019-03-06T14:03:53.127Z,13.30
2019-03-06T14:08:57.407Z,13.30
2019-03-06T14:14:01.660Z,13.30
2019-03-06T14:19:05.913Z,13.30
2019-03-06T14:24:10.301Z,13.30
2019-03-06T14:29:14.759Z,13.40
2019-03-06T14:34:19.027Z,13.50
2019-03-06T14:39:28.612Z,13.40
2019-03-06T14:44:32.874Z,13.40
2019-03-06T14:49:37.162Z,13.40
2019-03-06T14:54:41.643Z,13.50
2019-03-06T14:59:45.894Z,13.30
2019-03-06T15:04:50.333Z,13.30
2019-03-06T15:09:54.853Z,13.40
2019-03-06T15:14:59.067Z,13.40
2019-03-06T15:20:03.391Z,13.30
2019-03-06T15:25:12.858Z,13.30
2019-03-06T15:30:18.223Z,13.30
2019-03-06T15:35:22.557Z,13.30
2019-03-06T15:40:28.089Z,13.40
2019-03-06T15:45:33.593Z,13.10
2019-03-06T15:50:37.955Z,13.10
2019-03-06T15:55:42.581Z,13.20
2019-03-06T16:00:48.610Z,13.20
2019-03-06T16:05:52.955Z,13.20
2019-03-06T16:10:57.432Z,13.20
2019-03-06T16:16:01.711Z,13.20
2019-03-06T16:21:06.396Z,13.20
2019-03-06T16:26:10.761Z,13.10
2019-03-06T16:31:16.101Z,12.90
2019-03-06T16:36:20.632Z,12.80
2019-03-06T16:41:24.962Z,12.80
2019-03-06T16:46:29.239Z,12.70
2019-03-06T16:51:33.602Z,12.70
2019-03-06T16:56:37.879Z,12.70
2019-03-06T17:01:42.150Z,12.60
2019-03-06T17:06:46.551Z,12.70
2019-03-06T17:11:50.889Z,12.60
2019-03-06T17:16:55.119Z,12.60
2019-03-06T17:21:59.595Z,12.60
2019-03-06T17:27:04.458Z,12.50
2019-03-06T17:32:08.704Z,12.60
2019-03-06T17:37:13.014Z,12.50
2019-03-06T17:42:17.254Z,12.50
2019-03-06T17:47:21.586Z,12.40
2019-03-06T17:52:25.981Z,12.40
2019-03-06T17:57:30.356Z,12.20
2019-03-06T18:02:34.700Z,12.30
2019-03-06T18:07:38.985Z,12.30
2019-03-06T18:12:43.222Z,12.30
2019-03-06T18:17:47.919Z,12.30
2019-03-06T18:22:52.174Z,12.40
2019-03-06T18:27:56.398Z,12.40
2019-03-06T18:33:00.981Z,12.60
2019-03-06T18:38:05.576Z,12.50
2019-03-06T18:43:09.881Z,12.40
2019-03-06T18:48:14.165Z,12.20
2019-03-06T18:53:18.471Z,12.20
2019-03-06T18:58:22.738Z,12.30
2019-03-06T19:03:27.034Z,12.20
2019-03-06T19:08:31.806Z,12.30
2019-03-06T19:13:36.564Z,12.30
2019-03-06T19:18:40.895Z,12.40
2019-03-06T19:23:45.894Z,12.40
2019-03-06T19:28:50.994Z,12.50
2019-03-06T19:33:55.330Z,12.40
2019-03-06T19:38:59.679Z,12.60
2019-03-06T19:44:04.355Z,12.50
2019-03-06T19:49:08.641Z,12.50
2019-03-06T19:54:13.015Z,12.40
2019-03-06T19:59:17.314Z,12.40
2019-03-06T20:04:21.719Z,12.40
2019-03-06T20:09:28.202Z,12.50
2019-03-06T20:14:32.566Z,12.50
2019-03-06T20:19:36.851Z,12.30
2019-03-06T20:24:41.212Z,12.30
2019-03-06T20:29:45.556Z,12.30
2019-03-06T20:34:50.388Z,12.30
2019-03-06T20:39:54.654Z,12.30
2019-03-06T20:44:58.940Z,12.30
2019-03-06T20:50:03.248Z,12.20
2019-03-06T20:55:08.045Z,12.20
2019-03-06T21:00:14.637Z,12.20
2019-03-06T21:05:19.016Z,12.30
2019-03-06T21:10:23.308Z,12.10
2019-03-06T21:15:27.948Z,12.20
2019-03-06T21:20:32.217Z,12.10
2019-03-06T21:25:36.498Z,12.20
2019-03-06T21:30:41.347Z,12.30
2019-03-06T21:35:45.622Z,12.30
2019-03-06T21:40:50.223Z,12.10
2019-03-06T21:45:54.739Z,12.20
2019-03-06T21:50:59.033Z,12.20
2019-03-06T21:56:03.310Z,12.20
2019-03-06T22:01:07.574Z,12.20
2019-03-06T22:06:11.825Z,12.20
2019-03-06T22:11:16.102Z,12.20
2019-03-06T22:16:20.351Z,12.10
2019-03-06T22:21:24.615Z,12.20
2019-03-06T22:26:28.914Z,12.00
2019-03-06T22:31:33.355Z,12.00
2019-03-06T22:36:37.707Z,12.20
2019-03-06T22:41:42.234Z,12.10
2019-03-06T22:46:46.479Z,12.00
2019-03-06T22:51:50.739Z,12.00
2019-03-06T22:56:54.984Z,12.00
2019-03-06T23:01:59.449Z,12.10
2019-03-06T23:07:03.715Z,12.10
2019-03-06T23:12:08.010Z,12.30
2019-03-06T23:17:12.324Z,12.30
2019-03-06T23:22:16.523Z,12.40
2019-03-06T23:27:21.211Z,12.30
2019-03-06T23:32:25.570Z,12.30
2019-03-06T23:37:29.763Z,12.40
2019-03-06T23:42:34.041Z,12.30
2019-03-06T23:47:38.382Z,12.50
2019-03-06T23:53:04.634Z,12.60
2019-03-06T23:58:08.918Z,12.60
